Observations for EXETER AIRPORT, United Kingdom (EGTE)

EGTE 280520Z 32004KT 9999 5000E SCT004 BKN009 15/14 Q0998   
EGTE 280450Z 33004KT 5000 -RADZ BR FEW006 BKN011 15/14 Q0998
EGTE 280420Z 34004KT 5000 -DZ BR BKN010 15/14 Q0998 
EGTE 280120Z 25002KT 8000 -RA SCT010 BKN022 15/15 Q1000 
EGTE 280050Z 20004KT 5000 -RA SCT008 BKN020 15/15 Q1000 
EGTE 280020Z 18003KT 5000 -RA SCT008 BKN020 15/15 Q1000 
EGTE 272350Z 17003KT 5000 -RA SCT008 BKN024 15/15 Q1001 
EGTE 272320Z 17003KT 8000 -RA SCT015 BKN030 15/15 Q1001 
EGTE 272250Z 17002KT 9999 SCT010 BKN018 15/15 Q1001 
EGTE 272220Z 18002KT 6000 -RA FEW006 BKN009 15/15 Q1002 
EGTE 272150Z 17003KT 6000 -RA FEW006 BKN009 15/15 Q1002 
EGTE 272120Z 17004KT 8000 -RA BKN010 15/14 Q1002
EGTE 272050Z 17004KT 9000 -DZ OVC014 15/14 Q1002
EGTE 272020Z 18003KT 9000 BKN015 15/14 Q1002
EGTE 271950Z 18005KT 9000 RADZ BKN015 16/14 Q1002   
EGTE 271920Z 20005KT 9999 BKN026 17/14 Q1002
EGTE 271850Z 15005KT 9999 OVC026 17/14 Q1003
EGTE 271820Z 14006KT 9999 OVC028 18/14 Q1003
EGTE 271750Z 14006KT 9999 -RA SCT020 OVC028 18/14 Q1003 
EGTE 271720Z 18006KT 9999 -RA FEW025 18/14 Q1003
EGTE 271650Z 18006KT 9999 FEW025 18/14 Q1003
EGTE 271620Z 20007KT 9999 -RA FEW025 19/14 Q1003
EGTE 271550Z 19007KT 9999 FEW025 19/14 Q1004
EGTE 271520Z 19007KT 9999 FEW025 19/14 Q1004
EGTE 271450Z VRB03KT 9999 FEW025 20/14 Q1004
EGTE 271420Z VRB03KT 9999 SCT020 20/14 Q1004
EGTE 271350Z 13004KT 060V230 9999 SCT020 19/14 Q1005
EGTE 271320Z VRB03KT 9999 BKN020 19/14 Q1005
EGTE 271250Z VRB02KT 9999 SCT019 BKN023 18/14 Q1005 
EGTE 271220Z VRB03KT 9999 BKN023 19/13 Q1005
EGTE 271150Z VRB03KT 9999 BKN021 19/13 Q1005
EGTE 271120Z VRB02KT 9999 BKN020 18/13 Q1006
EGTE 271050Z 17001KT 9999 BKN028 18/13 Q1006
EGTE 271020Z VRB03KT 9999 BKN018 17/13 Q1006
EGTE 270950Z 14005KT 080V160 9999 FEW012 BKN018 17/13 Q1006 
EGTE 270920Z 14005KT 9999 FEW012 BKN018 16/13 Q1007 
EGTE 270850Z 14006KT 090V170 9999 FEW018 BKN021 17/13 Q1007 
EGTE 270820Z 13007KT 090V160 9999 FEW018 BKN027 17/13 Q1007 
EGTE 270750Z 16006KT 120V190 9999 FEW018 BKN024 16/13 Q1007 
EGTE 270720Z 16005KT 9999 FEW015 BKN026 16/13 Q1007 
EGTE 270650Z VRB04KT 9999 FEW015 BKN028 15/13 Q1007 
EGTE 270620Z 32003KT 9999 BKN029 15/13 Q1007
EGTE 270550Z 32003KT 9999 FEW010 BKN029 14/13 Q1007 
EGTE 270520Z 32003KT 9999 BKN028 14/13 Q1008
EGTE 270450Z 33003KT 9999 FEW015 BKN028 14/12 Q1008